MSC Luisa — H9XU — position and weather

sailwx.info

Track history (hours):
 
Tides and Currents Weather Stations Pressure Air Temp Water Temp Dewpoint Dewpoint Depression Visibility Wind Speed Wind Dir Waves Ship Positions

MSC Luisa

Last reported at 2014-Aug-02 08:31 UTC. Time now 2014-Aug-02 08:37 UTC.
Position N 44°06' E 009°51'.

Length 300 m; draft 8.9 m.

Type: Ship. MMSI: 355308000.

Date/timePositionNaut miles runAvg speedWind from/ knotsBaromVisibWave heightAir tempDewpointWater temp
2014-Aug-02 08:31N 44°06' E 009°51'0 0.0
2014-Aug-02 07:28N 44°06' E 009°51'0 0.0
2014-Aug-02 06:33N 44°06' E 009°51'0 0.0
2014-Aug-02 05:34N 44°06' E 009°51'8 7.8
2014-Aug-02 04:34N 43°59' E 009°55'2019.8
2014-Aug-02 03:34N 43°40' E 009°50'2019.7
2014-Aug-02 02:34N 43°20' E 009°48'2019.8
2014-Aug-02 01:34N 43°02' E 009°58'2019.6
2014-Aug-02 00:32N 42°43' E 010°06'2020.0
2014-Aug-01 23:33N 42°29' E 010°26'2019.9
2014-Aug-01 22:34N 42°15' E 010°45'2020.1
2014-Aug-01 21:34N 42°01' E 011°04'2719.7
2014-Aug-01 20:11N 41°42' E 011°30'1219.5
2014-Aug-01 19:34N 41°34' E 011°42'2119.4
2014-Aug-01 18:28N 41°19' E 012°02'2219.2
2014-Aug-01 17:19N 41°04' E 012°23'4419.4
2014-Aug-01 15:03N 40°33' E 013°05'1719.3
2014-Aug-01 14:09N 40°21' E 013°21'159 3.5
2014-Jul-30 17:06N 38°25' E 015°42'1120.3
2014-Jul-30 16:33N 38°23' E 015°28'2020.1
2014-Jul-30 15:33N 38°19' E 015°03'4920.0
2014-Jul-30 13:06N 38°22' E 014°00'1120.2
2014-Jul-30 12:33N 38°23' E 013°47'2019.9
2014-Jul-30 11:33N 38°24' E 013°21'2020.0
2014-Jul-30 10:34N 38°26' E 012°56'20419.7
2014-Jul-30 00:11N 38°40' E 008°36'22619.3
2014-Jul-29 12:28N 38°57' E 003°47'1718.1
2014-Jul-29 11:33N 38°59' E 003°26'1818.1
2014-Jul-29 10:33N 38°60' E 003°02'1818.4
2014-Jul-29 09:33N 39°04' E 002°39'1918.7
2014-Jul-29 08:33N 39°07' E 002°16'1919.2
2014-Jul-29 07:33N 39°11' E 001°51'1919.2
2014-Jul-29 06:32N 39°14' E 001°26'83 4.8
2014-Jul-28 13:23N 39°26' W 000°20'0 0.0
2014-Jul-28 12:09N 39°26' W 000°20'0 0.0
2014-Jul-28 08:04N 39°26' W 000°20'0 0.0
2014-Jul-28 07:29N 39°26' W 000°20'0 0.0
2014-Jul-28 06:24N 39°26' W 000°20'0 0.0
2014-Jul-28 05:21N 39°26' W 000°20'0 0.0
2014-Jul-28 04:33N 39°26' W 000°20'0 0.0
2014-Jul-28 03:33N 39°26' W 000°20'0 0.0
2014-Jul-28 02:32N 39°26' W 000°20'0 0.0
2014-Jul-28 01:29N 39°26' W 000°20'0 0.1
2014-Jul-28 00:33N 39°26' W 000°20'0 0.0
2014-Jul-27 22:19N 39°26' W 000°20'0 0.0
2014-Jul-27 21:17N 39°26' W 000°20'0 0.0
2014-Jul-27 20:28N 39°26' W 000°20'2410.6
2014-Jul-27 18:10N 39°08' E 000°02'1219.1
2014-Jul-27 17:32N 38°58' E 000°11'6115.4
2014-Jul-27 13:33N 37°59' W 000°10'1818.0
2014-Jul-27 12:33N 37°43' W 000°21'26717.8
2014-Jul-26 21:33N 35°58' W 005°27'4319.7
2014-Jul-26 19:21N 35°55' W 006°20'3418.7
2014-Jul-26 17:33N 35°58' W 007°02'1918.6
2014-Jul-26 16:33N 36°01' W 007°25'1918.7
2014-Jul-26 15:33N 36°03' W 007°48'1918.8
2014-Jul-26 14:33N 36°05' W 008°11'2518.7
2014-Jul-26 13:14N 36°08' W 008°41'68418.1
2014-Jul-24 23:31N 37°16' W 022°50'1917.9
2014-Jul-24 22:28N 37°16' W 023°13'1617.9
2014-Jul-24 21:34N 37°17' W 023°34'1818.1
2014-Jul-24 20:33N 37°17' W 023°56'1918.6
2014-Jul-24 19:34N 37°18' W 024°20'1818.0
2014-Jul-24 18:33N 37°18' W 024°42'1818.2
2014-Jul-24 17:33N 37°18' W 025°05'1818.4
2014-Jul-24 16:33N 37°19' W 025°28'1817.9
2014-Jul-24 15:34N 37°19' W 025°51'1818.1
2014-Jul-24 14:34N 37°19' W 026°14'1818.3
2014-Jul-24 13:33N 37°19' W 026°37'1818.1
2014-Jul-24 12:34N 37°19' W 026°59'1818.1
2014-Jul-24 11:34N 37°18' W 027°22'1818.1
2014-Jul-24 10:33N 37°18' W 027°45'1818.4
2014-Jul-24 09:34N 37°18' W 028°08'1919.1
2014-Jul-24 08:33N 37°18' W 028°32'1918.9
2014-Jul-24 07:34N 37°17' W 028°56'1919.1
2014-Jul-24 06:34N 37°16' W 029°20'1919.2
2014-Jul-24 05:33N 37°16' W 029°44'2019.2
2014-Jul-24 04:31N 37°15' W 030°09'4719.1
2014-Jul-24 02:04N 37°13' W 031°08'  
Track history (hours):
 
Tides and Currents Weather Stations Pressure Air Temp Water Temp Dewpoint Dewpoint Depression Visibility Wind Speed Wind Dir Waves Ship Positions

MSC Luisa

Last reported at 2014-Aug-02 08:31 UTC. Time now 2014-Aug-02 08:37 UTC.
Position N 44°06' E 009°51'.

Length 300 m; draft 8.9 m.

Type: Ship. MMSI: 355308000.

Date/timePositionNaut miles runAvg speedWind from/ knotsBaromVisibWave heightAir tempDewpointWater temp
2014-Aug-02 08:31N 44°06' E 009°51'0 0.0
2014-Aug-02 07:28N 44°06' E 009°51'0 0.0
2014-Aug-02 06:33N 44°06' E 009°51'0 0.0
2014-Aug-02 05:34N 44°06' E 009°51'8 7.8
2014-Aug-02 04:34N 43°59' E 009°55'2019.8
2014-Aug-02 03:34N 43°40' E 009°50'2019.7
2014-Aug-02 02:34N 43°20' E 009°48'2019.8
2014-Aug-02 01:34N 43°02' E 009°58'2019.6
2014-Aug-02 00:32N 42°43' E 010°06'2020.0
2014-Aug-01 23:33N 42°29' E 010°26'2019.9
2014-Aug-01 22:34N 42°15' E 010°45'2020.1
2014-Aug-01 21:34N 42°01' E 011°04'2719.7
2014-Aug-01 20:11N 41°42' E 011°30'1219.5
2014-Aug-01 19:34N 41°34' E 011°42'2119.4
2014-Aug-01 18:28N 41°19' E 012°02'2219.2
2014-Aug-01 17:19N 41°04' E 012°23'4419.4
2014-Aug-01 15:03N 40°33' E 013°05'1719.3
2014-Aug-01 14:09N 40°21' E 013°21'159 3.5
2014-Jul-30 17:06N 38°25' E 015°42'1120.3
2014-Jul-30 16:33N 38°23' E 015°28'2020.1
2014-Jul-30 15:33N 38°19' E 015°03'4920.0
2014-Jul-30 13:06N 38°22' E 014°00'1120.2
2014-Jul-30 12:33N 38°23' E 013°47'2019.9
2014-Jul-30 11:33N 38°24' E 013°21'2020.0
2014-Jul-30 10:34N 38°26' E 012°56'20419.7
2014-Jul-30 00:11N 38°40' E 008°36'22619.3
2014-Jul-29 12:28N 38°57' E 003°47'1718.1
2014-Jul-29 11:33N 38°59' E 003°26'1818.1
2014-Jul-29 10:33N 38°60' E 003°02'1818.4
2014-Jul-29 09:33N 39°04' E 002°39'1918.7
2014-Jul-29 08:33N 39°07' E 002°16'1919.2
2014-Jul-29 07:33N 39°11' E 001°51'1919.2
2014-Jul-29 06:32N 39°14' E 001°26'83 4.8
2014-Jul-28 13:23N 39°26' W 000°20'0 0.0
2014-Jul-28 12:09N 39°26' W 000°20'0 0.0
2014-Jul-28 08:04N 39°26' W 000°20'0 0.0
2014-Jul-28 07:29N 39°26' W 000°20'0 0.0
2014-Jul-28 06:24N 39°26' W 000°20'0 0.0
2014-Jul-28 05:21N 39°26' W 000°20'0 0.0
2014-Jul-28 04:33N 39°26' W 000°20'0 0.0
2014-Jul-28 03:33N 39°26' W 000°20'0 0.0
2014-Jul-28 02:32N 39°26' W 000°20'0 0.0
2014-Jul-28 01:29N 39°26' W 000°20'0 0.1
2014-Jul-28 00:33N 39°26' W 000°20'0 0.0
2014-Jul-27 22:19N 39°26' W 000°20'0 0.0
2014-Jul-27 21:17N 39°26' W 000°20'0 0.0
2014-Jul-27 20:28N 39°26' W 000°20'2410.6
2014-Jul-27 18:10N 39°08' E 000°02'1219.1
2014-Jul-27 17:32N 38°58' E 000°11'6115.4
2014-Jul-27 13:33N 37°59' W 000°10'1818.0
2014-Jul-27 12:33N 37°43' W 000°21'26717.8
2014-Jul-26 21:33N 35°58' W 005°27'4319.7
2014-Jul-26 19:21N 35°55' W 006°20'3418.7
2014-Jul-26 17:33N 35°58' W 007°02'1918.6
2014-Jul-26 16:33N 36°01' W 007°25'1918.7
2014-Jul-26 15:33N 36°03' W 007°48'1918.8
2014-Jul-26 14:33N 36°05' W 008°11'2518.7
2014-Jul-26 13:14N 36°08' W 008°41'68418.1
2014-Jul-24 23:31N 37°16' W 022°50'1917.9
2014-Jul-24 22:28N 37°16' W 023°13'1617.9
2014-Jul-24 21:34N 37°17' W 023°34'1818.1
2014-Jul-24 20:33N 37°17' W 023°56'1918.6
2014-Jul-24 19:34N 37°18' W 024°20'1818.0
2014-Jul-24 18:33N 37°18' W 024°42'1818.2
2014-Jul-24 17:33N 37°18' W 025°05'1818.4
2014-Jul-24 16:33N 37°19' W 025°28'1817.9
2014-Jul-24 15:34N 37°19' W 025°51'1818.1
2014-Jul-24 14:34N 37°19' W 026°14'1818.3
2014-Jul-24 13:33N 37°19' W 026°37'1818.1
2014-Jul-24 12:34N 37°19' W 026°59'1818.1
2014-Jul-24 11:34N 37°18' W 027°22'1818.1
2014-Jul-24 10:33N 37°18' W 027°45'1818.4
2014-Jul-24 09:34N 37°18' W 028°08'1919.1
2014-Jul-24 08:33N 37°18' W 028°32'1918.9
2014-Jul-24 07:34N 37°17' W 028°56'1919.1
2014-Jul-24 06:34N 37°16' W 029°20'1919.2
2014-Jul-24 05:33N 37°16' W 029°44'2019.2
2014-Jul-24 04:31N 37°15' W 030°09'4719.1
2014-Jul-24 02:04N 37°13' W 031°08'  

Dump ship's entire track history